Ashland, Virginia
Current Conditions -  °F | °C
As of 10:54 AM on Sunday 23 Nov 2014 (Local Time) from KOFP Reporting Station
Clear Clear  
Wind Chill: 10°   Ceiling: Unl
Heat Index: 10°   Visibility: 10mi
Dew Point: -3°   Wind: 5mph
Humidity: 41%   Direction: 180°S
Pressure: 30.24"   Gusts: NA
Location:  37.76°N, 77.48°W
Report Text: KOFP 231554Z AUTO 18004KT 10SM CLR 10/M03 A3024 RMK AO2 SLP241 T01001028
Loading
Personal Weather Stations






























Interactive Weather Map New forecast layout! Learn more

10-Day Weather Forecast

Advertisements
Track Severe Weather on mobile